createdAt,value
2023-09-11T00:00:21.459Z,85.888889
2023-09-11T00:05:21.502Z,86.000000
2023-09-11T00:10:21.501Z,86.000000
2023-09-11T00:15:21.504Z,86.000000
2023-09-11T00:20:21.789Z,85.360000
2023-09-11T00:25:21.530Z,86.000000
2023-09-11T00:30:33.497Z,86.000000
2023-09-11T00:35:21.493Z,86.277778
2023-09-11T00:40:21.490Z,86.571429
2023-09-11T00:45:33.704Z,86.954545
2023-09-11T00:50:21.631Z,87.045455
2023-09-11T00:55:21.549Z,87.000000
2023-09-11T01:00:45.613Z,86.500000
2023-09-11T01:05:21.534Z,86.117647
2023-09-11T01:10:33.666Z,86.526316
2023-09-11T01:15:33.798Z,87.000000
2023-09-11T01:20:21.502Z,87.000000
2023-09-11T01:25:21.611Z,87.000000
2023-09-11T01:30:21.452Z,87.000000
2023-09-11T01:35:21.570Z,87.000000
2023-09-11T01:40:21.530Z,87.100000
2023-09-11T01:45:21.597Z,88.000000
2023-09-11T01:50:21.577Z,88.000000
2023-09-11T01:55:21.520Z,87.882353
2023-09-11T02:00:21.595Z,87.782609
2023-09-11T02:05:21.506Z,87.952381
2023-09-11T02:10:33.567Z,88.000000
2023-09-11T02:15:21.560Z,88.000000
2023-09-11T02:20:21.564Z,88.136364
2023-09-11T02:25:33.655Z,88.000000
2023-09-11T02:30:21.458Z,88.000000
2023-09-11T02:35:45.655Z,88.000000
2023-09-11T02:40:21.507Z,88.181818
2023-09-11T02:45:21.522Z,88.000000
2023-09-11T02:50:21.511Z,88.000000
2023-09-11T02:55:33.476Z,88.000000
2023-09-11T03:00:21.496Z,88.250000
2023-09-11T03:05:21.572Z,88.000000
2023-09-11T03:10:21.558Z,88.047619
2023-09-11T03:15:21.685Z,88.238095
2023-09-11T03:20:21.556Z,89.000000
2023-09-11T03:25:21.695Z,89.000000
2023-09-11T03:30:23.217Z,89.000000
2023-09-11T03:35:33.606Z,89.000000
2023-09-11T03:40:21.460Z,89.000000
2023-09-11T03:45:21.512Z,88.714286
2023-09-11T03:50:22.029Z,89.000000
2023-09-11T03:55:21.394Z,89.000000
2023-09-11T04:00:21.460Z,89.000000
2023-09-11T04:05:21.619Z,89.000000
2023-09-11T04:10:21.491Z,88.904762
2023-09-11T04:15:21.599Z,87.789474
2023-09-11T04:20:21.630Z,86.625000
2023-09-11T04:25:21.556Z,85.869565
2023-09-11T04:30:22.182Z,85.130435
2023-09-11T04:35:21.513Z,84.047619
2023-09-11T04:40:21.492Z,83.300000
2023-09-11T04:45:34.693Z,82.565217
2023-09-11T04:50:21.517Z,81.400000
2023-09-11T04:55:21.439Z,80.782609
2023-09-11T05:00:21.593Z,79.863636
2023-09-11T05:05:21.459Z,79.157895
2023-09-11T05:10:33.603Z,78.789474
2023-09-11T05:15:33.487Z,78.000000
2023-09-11T05:20:21.588Z,77.318182
2023-09-11T05:25:33.656Z,76.684211
2023-09-11T05:30:23.024Z,76.300000
2023-09-11T05:35:33.807Z,74.727273
2023-09-11T05:40:33.579Z,73.952381
2023-09-11T05:45:21.519Z,73.312500
2023-09-11T05:50:21.450Z,72.476190
2023-09-11T05:55:21.428Z,71.555556
2023-09-11T06:00:21.635Z,71.190476
2023-09-11T06:05:21.490Z,70.500000
2023-09-11T06:10:21.569Z,69.789474
2023-09-11T06:15:21.524Z,69.173913
2023-09-11T06:20:21.453Z,68.650000
2023-09-11T06:25:21.580Z,67.238095
2023-09-11T06:30:21.456Z,67.050000
2023-09-11T06:35:21.604Z,67.600000
2023-09-11T06:40:21.515Z,67.700000
2023-09-11T06:45:21.628Z,65.550000
2023-09-11T06:50:21.439Z,65.166667
2023-09-11T06:55:21.435Z,65.727273
2023-09-11T07:00:33.548Z,64.695652
2023-09-11T07:05:21.576Z,63.388889
2023-09-11T07:10:40.709Z,62.913043
2023-09-11T07:15:21.411Z,62.578947
2023-09-11T07:20:21.523Z,62.450000
2023-09-11T07:25:21.612Z,60.857143
2023-09-11T07:30:21.575Z,59.681818
2023-09-11T07:35:21.490Z,60.400000
2023-09-11T07:40:33.530Z,59.619048
2023-09-11T07:45:21.360Z,60.380952
2023-09-11T07:50:21.478Z,59.050000
2023-09-11T07:55:22.453Z,59.421053
2023-09-11T08:00:21.612Z,59.823529
2023-09-11T08:05:21.656Z,57.750000
2023-09-11T08:10:21.372Z,58.217391
2023-09-11T08:15:21.408Z,56.952381
2023-09-11T08:20:21.501Z,57.318182
2023-09-11T08:25:21.499Z,57.294118
2023-09-11T08:30:21.485Z,56.294118
2023-09-11T08:35:21.503Z,56.045455
2023-09-11T08:40:21.378Z,56.473684
2023-09-11T08:45:21.463Z,56.764706
2023-09-11T08:50:21.529Z,54.928571
2023-09-11T08:55:21.500Z,55.842105
2023-09-11T09:00:21.493Z,55.842105
2023-09-11T09:05:33.657Z,54.750000
2023-09-11T09:10:21.358Z,53.684211
2023-09-11T09:15:21.458Z,54.500000
2023-09-11T09:20:33.643Z,54.428571
2023-09-11T09:25:21.482Z,52.000000
2023-09-11T09:30:21.432Z,53.000000
2023-09-11T09:35:22.364Z,52.750000
2023-09-11T09:40:21.375Z,50.894737
2023-09-11T09:45:21.444Z,51.000000
2023-09-11T09:50:21.571Z,51.857143
2023-09-11T09:55:21.588Z,53.333333
2023-09-11T10:00:21.338Z,52.714286
2023-09-11T10:05:21.494Z,53.200000
2023-09-11T10:10:21.402Z,51.809524
2023-09-11T10:15:21.428Z,51.416667
2023-09-11T10:20:21.541Z,50.380952
2023-09-11T10:25:21.618Z,51.684211
2023-09-11T10:30:33.441Z,54.105263
2023-09-11T10:35:21.381Z,52.842105
2023-09-11T10:40:33.555Z,55.347826
2023-09-11T10:45:21.499Z,56.526316
2023-09-11T10:50:33.641Z,55.130435
2023-09-11T10:55:21.471Z,56.684211
2023-09-11T11:00:21.408Z,57.666667
2023-09-11T11:05:21.392Z,57.200000
2023-09-11T11:10:21.509Z,57.304348
2023-09-11T11:15:21.553Z,58.227273
2023-09-11T11:20:33.389Z,56.894737
2023-09-11T11:25:21.306Z,58.142857
2023-09-11T11:30:33.472Z,57.250000
2023-09-11T11:35:21.494Z,59.444444
2023-09-11T11:40:21.449Z,62.000000
2023-09-11T11:45:21.442Z,61.095238
2023-09-11T11:50:21.430Z,60.117647
2023-09-11T11:55:33.682Z,60.947368
2023-09-11T12:00:21.362Z,59.611111
2023-09-11T12:05:21.461Z,60.950000
2023-09-11T12:10:21.548Z,60.600000
2023-09-11T12:15:45.451Z,61.157895
2023-09-11T12:20:21.331Z,61.105263
2023-09-11T12:25:33.498Z,59.882353
2023-09-11T12:30:21.328Z,59.888889
2023-09-11T12:35:33.470Z,61.190476
2023-09-11T12:40:21.420Z,61.190476
2023-09-11T12:45:21.582Z,60.590909
2023-09-11T12:50:21.316Z,59.478261
2023-09-11T12:55:21.289Z,60.400000
2023-09-11T13:00:33.456Z,61.636364
2023-09-11T13:05:21.397Z,62.368421
2023-09-11T13:10:21.522Z,61.809524
2023-09-11T13:15:21.304Z,61.272727
2023-09-11T13:20:21.462Z,61.047619
2023-09-11T13:25:45.516Z,62.000000
2023-09-11T13:30:21.424Z,61.187500
2023-09-11T13:35:21.415Z,60.368421
2023-09-11T13:40:22.242Z,62.190476
2023-09-11T13:45:45.624Z,61.150000
2023-09-11T13:50:21.355Z,62.117647
2023-09-11T13:55:33.407Z,62.000000
2023-09-11T14:00:33.499Z,62.000000
2023-09-11T14:05:31.891Z,61.833333
2023-09-11T14:10:21.415Z,61.947368
2023-09-11T14:15:21.469Z,62.250000
2023-09-11T14:20:21.556Z,63.300000
2023-09-11T14:25:21.384Z,63.200000
2023-09-11T14:30:33.462Z,62.476190
2023-09-11T14:35:21.373Z,61.909091
2023-09-11T14:40:21.426Z,61.200000
2023-09-11T14:45:21.407Z,61.500000
2023-09-11T14:50:21.445Z,62.000000
2023-09-11T14:55:21.409Z,62.250000
2023-09-11T15:00:21.422Z,62.550000
2023-09-11T15:05:21.751Z,63.434783
2023-09-11T15:10:21.258Z,63.650000
2023-09-11T15:15:21.386Z,63.736842
2023-09-11T15:20:21.352Z,63.809524
2023-09-11T15:25:21.334Z,63.428571
2023-09-11T15:30:21.477Z,64.100000
2023-09-11T15:35:21.274Z,64.750000
2023-09-11T15:40:21.456Z,65.055556
2023-09-11T15:45:33.484Z,64.545455
2023-09-11T15:50:21.315Z,64.100000
2023-09-11T15:55:21.445Z,64.545455
2023-09-11T16:00:33.384Z,63.380952
2023-09-11T16:05:21.265Z,62.300000
2023-09-11T16:10:33.378Z,62.650000
2023-09-11T16:15:21.301Z,62.277778
2023-09-11T16:20:33.549Z,63.400000
2023-09-11T16:25:21.821Z,63.368421
2023-09-11T16:30:21.512Z,64.388889
2023-09-11T16:35:21.251Z,64.904762
2023-09-11T16:40:21.307Z,64.181818
2023-09-11T16:45:33.511Z,64.136364
2023-09-11T16:50:21.344Z,64.772727
2023-09-11T16:55:21.317Z,65.000000
2023-09-11T17:00:21.282Z,65.500000
2023-09-11T17:05:21.266Z,65.857143
2023-09-11T17:10:21.289Z,66.333333
2023-09-11T17:15:33.340Z,67.333333
2023-09-11T17:20:21.418Z,69.272727
2023-09-11T17:25:21.388Z,70.058824
2023-09-11T17:30:21.308Z,69.714286
2023-09-11T17:35:33.377Z,69.681818
2023-09-11T17:40:21.314Z,70.736842
2023-09-11T17:45:21.415Z,72.227273
2023-09-11T17:50:21.337Z,71.736842
2023-09-11T17:55:21.317Z,70.608696
2023-09-11T18:00:33.480Z,71.500000
2023-09-11T18:05:21.293Z,72.708333
2023-09-11T18:10:21.305Z,73.809524
2023-09-11T18:15:21.339Z,75.136364
2023-09-11T18:20:33.386Z,74.636364
2023-09-11T18:25:21.219Z,75.000000
2023-09-11T18:30:21.285Z,76.000000
2023-09-11T18:35:33.533Z,77.250000
2023-09-11T18:40:21.359Z,79.473684
2023-09-11T18:45:21.335Z,82.750000
2023-09-11T18:50:21.320Z,83.000000
2023-09-11T18:55:21.261Z,83.000000
2023-09-11T19:00:33.368Z,84.631579
2023-09-11T19:05:21.287Z,86.285714
2023-09-11T19:10:21.387Z,86.590909
2023-09-11T19:15:21.388Z,87.950000
2023-09-11T19:20:21.405Z,88.000000
2023-09-11T19:25:21.284Z,88.272727
2023-09-11T19:30:21.331Z,89.000000
2023-09-11T19:35:21.291Z,89.750000
2023-09-11T19:40:21.273Z,90.333333
2023-09-11T19:45:21.360Z,91.578947
2023-09-11T19:50:21.204Z,92.631579
2023-09-11T19:55:21.200Z,92.500000
2023-09-11T20:00:33.550Z,92.000000
2023-09-11T20:05:21.279Z,92.545455
2023-09-11T20:10:21.289Z,93.388889
2023-09-11T20:15:21.440Z,94.000000
2023-09-11T20:20:21.226Z,93.913043
2023-09-11T20:25:33.334Z,93.473684
2023-09-11T20:30:33.367Z,94.285714
2023-09-11T20:35:21.256Z,94.000000
2023-09-11T20:40:21.271Z,93.058824
2023-09-11T20:45:21.447Z,93.136364
2023-09-11T20:50:21.289Z,93.000000
2023-09-11T20:55:21.292Z,93.000000
2023-09-11T21:00:33.353Z,93.000000
2023-09-11T21:05:21.306Z,93.333333
2023-09-11T21:10:21.280Z,94.000000
2023-09-11T21:15:21.394Z,94.571429
2023-09-11T21:20:33.367Z,94.590909
2023-09-11T21:25:33.356Z,94.000000
2023-09-11T21:30:21.660Z,94.000000
2023-09-11T21:35:33.340Z,94.000000
2023-09-11T21:40:21.440Z,94.000000
2023-09-11T21:45:21.330Z,94.000000
2023-09-11T21:50:21.295Z,94.250000
2023-09-11T21:55:33.486Z,94.090909
2023-09-11T22:00:21.272Z,94.000000
2023-09-11T22:05:21.286Z,94.000000
2023-09-11T22:10:21.322Z,94.000000
2023-09-11T22:15:33.412Z,94.857143
2023-09-11T22:20:21.179Z,95.000000
2023-09-11T22:25:21.220Z,95.647059
2023-09-11T22:30:21.445Z,95.954545
2023-09-11T22:35:21.310Z,95.950000
2023-09-11T22:40:45.348Z,96.000000
2023-09-11T22:45:21.386Z,96.350000
2023-09-11T22:50:21.275Z,96.272727
2023-09-11T22:55:45.403Z,96.000000
2023-09-11T23:00:21.279Z,96.000000
2023-09-11T23:05:21.249Z,96.652174
2023-09-11T23:10:33.281Z,96.619048
2023-09-11T23:15:21.321Z,96.000000
2023-09-11T23:20:21.228Z,96.000000
2023-09-11T23:25:33.336Z,96.318182
2023-09-11T23:30:21.444Z,96.052632
2023-09-11T23:35:33.351Z,96.272727
2023-09-11T23:40:33.308Z,96.105263
2023-09-11T23:45:21.374Z,97.000000
2023-09-11T23:50:21.237Z,97.000000
2023-09-11T23:55:33.381Z,97.222222
